Time;durP1;ratioP1;P1;durP2;ratioP2;P2;SDS_P1;SDS_P2;PMS_P1;PMS_P2;Temp;Humidity;BMP_temperature;BMP_pressure;BME280_temperature;BME280_humidity;BME280_pressure;Samples;Min_cycle;Max_cycle;Signal;HPM_P1;HPM_P2
2021/08/19 00:01:23;;;;;;;9.07;6.10;;;17.30;96.60;;;;;;4927335;29;20414;-85
2021/08/19 00:03:49;;;;;;;9.23;5.87;;;17.20;96.60;;;;;;4933135;29;20167;-84
2021/08/19 00:06:15;;;;;;;7.30;5.47;;;17.20;96.60;;;;;;4934560;29;20261;-85
2021/08/19 00:08:42;;;;;;;8.20;5.90;;;17.20;96.60;;;;;;4953481;29;20185;-84
2021/08/19 00:11:09;;;;;;;8.83;6.33;;;17.20;96.70;;;;;;4917720;29;20265;-87
2021/08/19 00:13:35;;;;;;;10.57;6.00;;;17.30;96.70;;;;;;4922173;29;20466;-86
2021/08/19 00:16:01;;;;;;;8.83;6.77;;;17.20;96.70;;;;;;4921140;29;20506;-85
2021/08/19 00:18:27;;;;;;;8.00;5.63;;;17.20;96.60;;;;;;4923770;29;20425;-86
2021/08/19 00:20:53;;;;;;;7.37;6.17;;;17.20;96.70;;;;;;4928339;29;20745;-86
2021/08/19 00:23:19;;;;;;;7.07;6.13;;;17.20;96.60;;;;;;4930540;29;20438;-86
2021/08/19 00:25:45;;;;;;;13.23;6.40;;;17.20;96.60;;;;;;4939078;29;20190;-84
2021/08/19 00:28:14;;;;;;;6.93;5.63;;;17.20;96.60;;;;;;4940905;29;20173;-84
2021/08/19 00:30:40;;;;;;;11.03;6.80;;;17.20;96.60;;;;;;4940437;29;20492;-86
2021/08/19 00:33:10;;;;;;;10.60;5.60;;;17.20;96.60;;;;;;4935437;29;20450;-84
2021/08/19 00:35:36;;;;;;;8.00;6.10;;;17.30;96.60;;;;;;4938401;29;20179;-87
2021/08/19 00:38:05;;;;;;;8.00;5.00;;;17.30;96.50;;;;;;4937429;29;20437;-86
2021/08/19 00:40:32;;;;;;;10.63;6.77;;;17.30;96.40;;;;;;4934683;29;20183;-84
2021/08/19 00:43:05;;;;;;;10.20;5.63;;;17.20;96.30;;;;;;4938776;29;20450;-86
2021/08/19 00:45:34;;;;;;;10.60;5.93;;;17.30;96.30;;;;;;4938657;29;20419;-84
2021/08/19 00:48:00;;;;;;;10.37;6.17;;;17.20;96.20;;;;;;4939117;29;20414;-85
2021/08/19 00:50:29;;;;;;;11.73;6.53;;;17.20;96.10;;;;;;4954714;29;20415;-82
2021/08/19 00:53:02;;;;;;;7.97;5.50;;;17.30;96.10;;;;;;4946735;29;20270;-84
2021/08/19 00:55:27;;;;;;;8.90;5.93;;;17.20;96.00;;;;;;4946079;29;20519;-86
2021/08/19 00:57:55;;;;;;;14.50;7.73;;;17.30;95.90;;;;;;4933763;29;20411;-86
2021/08/19 01:00:21;;;;;;;9.23;5.90;;;17.20;95.80;;;;;;4931430;29;20185;-83
2021/08/19 01:02:47;;;;;;;8.50;6.93;;;17.30;95.90;;;;;;4930862;29;20434;-86
2021/08/19 01:05:18;;;;;;;8.83;5.70;;;17.30;95.90;;;;;;4929415;29;20446;-85
2021/08/19 01:07:46;;;;;;;9.97;5.37;;;17.30;95.80;;;;;;4935544;29;20422;-85
2021/08/19 01:10:13;;;;;;;14.63;6.10;;;17.30;95.80;;;;;;4934878;29;20414;-85
2021/08/19 01:12:41;;;;;;;9.27;6.50;;;17.30;95.70;;;;;;4934290;29;20473;-86
2021/08/19 01:15:07;;;;;;;16.93;6.27;;;17.30;95.70;;;;;;4924920;29;20434;-85
2021/08/19 01:17:33;;;;;;;11.00;5.80;;;17.30;95.70;;;;;;4924381;29;20414;-87
2021/08/19 01:19:59;;;;;;;13.17;6.53;;;17.30;95.60;;;;;;4924036;29;20410;-86
2021/08/19 01:22:25;;;;;;;16.37;9.03;;;17.40;95.60;;;;;;4923199;29;20309;-87
2021/08/19 01:24:51;;;;;;;9.73;6.77;;;17.40;95.60;;;;;;4922787;29;20479;-85
2021/08/19 01:27:19;;;;;;;12.20;7.00;;;17.40;95.60;;;;;;4920741;29;20497;-86
2021/08/19 01:29:46;;;;;;;9.73;5.70;;;17.40;95.40;;;;;;4922002;29;20414;-86
2021/08/19 01:32:13;;;;;;;10.43;6.33;;;17.40;95.80;;;;;;4922000;29;20466;-85
2021/08/19 01:34:39;;;;;;;9.43;6.90;;;17.40;95.40;;;;;;4920899;29;20437;-85
2021/08/19 01:37:05;;;;;;;10.30;6.67;;;17.40;95.30;;;;;;4921347;29;20937;-86
2021/08/19 01:39:31;;;;;;;10.50;6.37;;;17.40;95.40;;;;;;4920298;29;20429;-85
2021/08/19 01:41:57;;;;;;;10.83;6.33;;;17.40;95.30;;;;;;4921242;29;20442;-85
2021/08/19 01:44:22;;;;;;;9.60;7.20;;;17.40;95.20;;;;;;4924217;29;20430;-85
2021/08/19 01:46:59;;;;;;;8.60;5.40;;;17.40;95.20;;;;;;4940634;29;20183;-84
2021/08/19 01:49:32;;;;;;;10.90;6.30;;;17.40;95.10;;;;;;4926319;29;20171;-86
2021/08/19 01:51:59;;;;;;;8.47;6.00;;;17.40;95.00;;;;;;4926487;29;20462;-85
2021/08/19 01:54:26;;;;;;;18.50;6.40;;;17.40;95.00;;;;;;4925802;29;20413;-86
2021/08/19 01:56:52;;;;;;;9.03;6.17;;;17.40;94.90;;;;;;4948498;29;20463;-84
2021/08/19 01:59:18;;;;;;;11.90;6.53;;;17.40;94.90;;;;;;4940330;29;20419;-84
2021/08/19 02:01:44;;;;;;;13.10;6.30;;;17.40;94.80;;;;;;4919973;29;20441;-86
2021/08/19 02:04:09;;;;;;;10.20;6.30;;;17.40;94.80;;;;;;4918591;29;20163;-85
2021/08/19 02:06:35;;;;;;;7.87;5.57;;;17.40;94.80;;;;;;4919896;29;20178;-85
2021/08/19 02:09:01;;;;;;;8.20;6.10;;;17.40;94.90;;;;;;4919733;29;20172;-85
2021/08/19 02:11:27;;;;;;;12.00;7.10;;;17.40;94.90;;;;;;4918244;29;20190;-85
2021/08/19 02:13:53;;;;;;;11.70;6.13;;;17.40;94.90;;;;;;4920755;29;20738;-87
2021/08/19 02:16:18;;;;;;;11.23;7.30;;;17.50;95.30;;;;;;4925932;29;20217;-85
2021/08/19 02:18:44;;;;;;;9.13;5.70;;;17.50;94.90;;;;;;4936166;29;20477;-84
2021/08/19 02:21:10;;;;;;;9.37;6.23;;;17.50;94.90;;;;;;4955667;29;20186;-85
2021/08/19 02:23:36;;;;;;;11.20;6.23;;;17.50;94.90;;;;;;4928825;29;20198;-86
2021/08/19 02:26:02;;;;;;;6.97;5.73;;;17.50;94.80;;;;;;4927538;29;20414;-85
2021/08/19 02:28:28;;;;;;;9.40;5.07;;;17.50;94.80;;;;;;4926205;29;20222;-86
2021/08/19 02:30:53;;;;;;;9.63;6.33;;;17.50;94.80;;;;;;4925473;29;20419;-86
2021/08/19 02:33:19;;;;;;;8.27;5.47;;;17.50;94.70;;;;;;4931126;29;20225;-85
2021/08/19 02:35:45;;;;;;;9.53;6.90;;;17.50;94.60;;;;;;4927642;29;20179;-85
2021/08/19 02:38:11;;;;;;;11.50;5.80;;;17.50;94.60;;;;;;4929542;29;20178;-86
2021/08/19 02:40:36;;;;;;;7.77;5.57;;;17.50;94.60;;;;;;4930510;29;20191;-83
2021/08/19 02:43:03;;;;;;;10.70;7.17;;;17.50;94.60;;;;;;4939254;29;20265;-84
2021/08/19 02:45:29;;;;;;;7.30;4.97;;;17.50;94.50;;;;;;4940449;29;20179;-85
2021/08/19 02:47:55;;;;;;;7.07;5.23;;;17.50;94.50;;;;;;4939669;29;20483;-86
2021/08/19 02:50:21;;;;;;;9.07;5.50;;;17.50;94.50;;;;;;4941258;29;20410;-86
2021/08/19 02:52:47;;;;;;;7.77;5.33;;;17.50;94.40;;;;;;4940312;29;20272;-85
2021/08/19 02:55:13;;;;;;;6.90;5.10;;;17.50;94.30;;;;;;4932061;29;20481;-86
2021/08/19 02:57:38;;;;;;;7.57;5.57;;;17.50;94.30;;;;;;4927669;29;20179;-86
2021/08/19 03:00:06;;;;;;;6.63;4.57;;;17.50;94.60;;;;;;4927309;29;20418;-85
2021/08/19 03:02:32;;;;;;;7.70;5.40;;;17.50;94.20;;;;;;4941586;29;20442;-85
2021/08/19 03:04:58;;;;;;;7.63;5.17;;;17.50;94.20;;;;;;4927654;29;20415;-85
2021/08/19 03:07:23;;;;;;;10.20;5.40;;;17.50;94.20;;;;;;4941565;29;20426;-86
2021/08/19 03:09:50;;;;;;;10.97;4.47;;;17.50;94.10;;;;;;4943578;29;20426;-85
2021/08/19 03:12:15;;;;;;;7.37;4.57;;;17.50;94.10;;;;;;4955707;29;20190;-86
2021/08/19 03:14:41;;;;;;;8.73;5.00;;;17.50;94.00;;;;;;4931533;29;20435;-85
2021/08/19 03:17:08;;;;;;;10.13;5.10;;;17.60;94.00;;;;;;4940042;29;20403;-85
2021/08/19 03:19:35;;;;;;;7.93;5.03;;;17.50;94.00;;;;;;4927724;29;20186;-86
2021/08/19 03:22:01;;;;;;;15.00;5.53;;;17.60;94.00;;;;;;4927715;29;20438;-86
2021/08/19 03:24:30;;;;;;;8.03;4.53;;;17.60;94.00;;;;;;4926952;29;20426;-85
2021/08/19 03:26:57;;;;;;;14.93;5.50;;;17.50;94.00;;;;;;4934305;29;20552;-86
2021/08/19 03:29:23;;;;;;;6.70;4.60;;;17.50;94.00;;;;;;4931583;29;20446;-87
2021/08/19 03:31:48;;;;;;;8.80;4.60;;;17.50;94.00;;;;;;4930266;29;20525;-86
2021/08/19 03:34:14;;;;;;;7.47;5.00;;;17.50;94.10;;;;;;4935105;29;20171;-86
2021/08/19 03:36:39;;;;;;;11.63;5.07;;;17.50;94.10;;;;;;4940727;29;20238;-83
2021/08/19 03:39:05;;;;;;;11.43;5.70;;;17.50;94.20;;;;;;4935983;29;20179;-84
2021/08/19 03:41:34;;;;;;;12.33;5.47;;;17.50;94.20;;;;;;4944660;28;20171;-84
2021/08/19 03:44:00;;;;;;;9.87;5.57;;;17.50;94.20;;;;;;4936824;29;20182;-87
2021/08/19 03:46:26;;;;;;;7.77;5.30;;;17.50;94.30;;;;;;4920665;29;20965;-86
2021/08/19 03:48:52;;;;;;;9.67;5.30;;;17.50;94.30;;;;;;4920087;29;20660;-86
2021/08/19 03:51:17;;;;;;;9.00;4.60;;;17.50;94.40;;;;;;4920696;29;20202;-85
2021/08/19 03:53:43;;;;;;;7.83;5.37;;;17.50;94.30;;;;;;5000255;23;20231;-74
2021/08/19 03:56:09;;;;;;;13.13;5.20;;;17.50;94.30;;;;;;4993018;28;20172;-75
2021/08/19 03:58:36;;;;;;;14.13;5.77;;;17.50;94.30;;;;;;4989976;28;20176;-75
2021/08/19 04:01:02;;;;;;;9.00;4.60;;;17.50;94.30;;;;;;4973782;28;20175;-75
2021/08/19 04:03:28;;;;;;;10.57;5.30;;;17.50;94.40;;;;;;4973859;28;20400;-75
2021/08/19 04:05:54;;;;;;;7.43;4.23;;;17.50;94.40;;;;;;4972290;28;20180;-74
2021/08/19 04:08:20;;;;;;;7.07;4.83;;;17.50;94.40;;;;;;4971424;28;20318;-75
2021/08/19 04:10:46;;;;;;;7.30;4.83;;;17.50;94.40;;;;;;4973481;28;20180;-74
2021/08/19 04:13:13;;;;;;;8.07;5.30;;;17.50;94.40;;;;;;4972445;28;20746;-75
2021/08/19 04:15:38;;;;;;;10.47;6.03;;;17.50;94.50;;;;;;4973636;28;20596;-75
2021/08/19 04:18:04;;;;;;;7.93;5.27;;;17.50;94.40;;;;;;4955213;28;20566;-75
2021/08/19 04:20:30;;;;;;;11.03;5.53;;;17.50;94.50;;;;;;4973785;28;20239;-74
2021/08/19 04:22:56;;;;;;;9.13;4.90;;;17.50;94.40;;;;;;4972042;28;20176;-74
2021/08/19 04:25:21;;;;;;;9.07;4.83;;;17.50;94.40;;;;;;4972170;28;20172;-74
2021/08/19 04:27:47;;;;;;;8.47;5.43;;;17.50;94.40;;;;;;4970883;28;20220;-74
2021/08/19 04:30:13;;;;;;;8.87;5.50;;;17.50;94.40;;;;;;4973223;28;20223;-76
2021/08/19 04:32:38;;;;;;;9.97;5.30;;;17.50;94.40;;;;;;4971914;28;20196;-76
2021/08/19 04:35:05;;;;;;;9.73;6.20;;;17.50;94.50;;;;;;4972957;28;20169;-73
2021/08/19 04:37:31;;;;;;;6.70;4.87;;;17.50;94.40;;;;;;4971119;28;20212;-73
2021/08/19 04:39:56;;;;;;;7.70;4.80;;;17.50;94.40;;;;;;4971216;28;20459;-73
2021/08/19 04:42:24;;;;;;;8.40;5.73;;;17.50;94.40;;;;;;4973257;28;20658;-73
2021/08/19 04:44:50;;;;;;;7.17;5.63;;;17.50;94.40;;;;;;4972202;28;20176;-74
2021/08/19 04:47:16;;;;;;;8.90;5.20;;;17.50;94.40;;;;;;4973630;28;20956;-73
2021/08/19 04:49:41;;;;;;;6.87;5.17;;;17.50;94.40;;;;;;4970697;28;20483;-74
2021/08/19 04:52:07;;;;;;;11.03;5.10;;;17.50;94.40;;;;;;4972832;28;20235;-74
2021/08/19 04:54:33;;;;;;;8.27;4.90;;;17.50;94.40;;;;;;4971488;28;20188;-73
2021/08/19 04:56:59;;;;;;;10.03;5.57;;;17.50;94.40;;;;;;4971875;28;20176;-73
2021/08/19 04:59:25;;;;;;;8.57;5.57;;;17.50;94.40;;;;;;4972104;28;20436;-74
2021/08/19 05:01:50;;;;;;;8.30;6.43;;;17.50;94.40;;;;;;4968244;28;20355;-74
2021/08/19 05:04:16;;;;;;;16.67;6.70;;;17.50;94.40;;;;;;4969011;28;20176;-74
2021/08/19 05:06:42;;;;;;;8.40;5.40;;;17.50;94.40;;;;;;4973765;28;20646;-74
2021/08/19 05:09:08;;;;;;;9.40;5.67;;;17.40;94.40;;;;;;4971648;28;20295;-74
2021/08/19 05:11:35;;;;;;;7.93;6.30;;;17.40;94.50;;;;;;4971564;28;20173;-74
2021/08/19 05:14:03;;;;;;;8.07;5.40;;;17.50;94.50;;;;;;4971941;28;20466;-74
2021/08/19 05:16:29;;;;;;;13.30;5.13;;;17.50;94.50;;;;;;4973342;28;20424;-75
2021/08/19 05:18:55;;;;;;;8.73;5.60;;;17.50;94.30;;;;;;4972477;28;20444;-74
2021/08/19 05:21:22;;;;;;;6.20;4.70;;;17.50;94.30;;;;;;4972559;28;20427;-75
2021/08/19 05:23:47;;;;;;;14.57;6.90;;;17.50;94.30;;;;;;4974207;28;20446;-75
2021/08/19 05:26:13;;;;;;;6.33;4.50;;;17.50;94.20;;;;;;4973638;28;20774;-76
2021/08/19 05:28:39;;;;;;;6.43;4.50;;;17.50;94.10;;;;;;4970529;28;20689;-76
2021/08/19 05:31:04;;;;;;;9.37;3.97;;;17.50;94.10;;;;;;4972590;28;20528;-76
2021/08/19 05:33:30;;;;;;;6.83;4.70;;;17.50;94.10;;;;;;4972773;28;20566;-75
2021/08/19 05:35:56;;;;;;;8.53;4.47;;;17.50;94.00;;;;;;4973642;28;20196;-76
2021/08/19 05:38:22;;;;;;;10.67;4.60;;;17.60;94.00;;;;;;4971784;28;20195;-76
2021/08/19 05:40:47;;;;;;;8.30;5.00;;;17.60;93.70;;;;;;4972185;28;20168;-75
2021/08/19 05:43:13;;;;;;;9.00;5.23;;;17.60;93.70;;;;;;4972617;28;20168;-75
2021/08/19 05:45:40;;;;;;;7.33;3.90;;;17.60;93.50;;;;;;4974198;28;20173;-74
2021/08/19 05:48:06;;;;;;;8.00;4.80;;;17.60;93.50;;;;;;4970263;28;20412;-74
2021/08/19 05:50:35;;;;;;;11.20;4.40;;;17.60;93.40;;;;;;4972400;28;21003;-76
2021/08/19 05:53:01;;;;;;;10.50;4.77;;;17.70;93.40;;;;;;4971393;28;20200;-76
2021/08/19 05:55:27;;;;;;;5.17;4.07;;;17.70;93.40;;;;;;4972571;28;20404;-76
2021/08/19 05:57:53;;;;;;;10.00;4.40;;;17.70;93.30;;;;;;4970621;28;20839;-75
2021/08/19 06:00:21;;;;;;;6.33;5.07;;;17.70;93.10;;;;;;4971178;28;20787;-75
2021/08/19 06:02:48;;;;;;;9.03;5.13;;;17.70;92.90;;;;;;4972689;28;20501;-75
2021/08/19 06:05:14;;;;;;;7.03;3.90;;;17.70;92.90;;;;;;4972030;28;20972;-75
2021/08/19 06:07:40;;;;;;;6.27;4.60;;;17.70;92.90;;;;;;4967964;28;20522;-75
2021/08/19 06:10:06;;;;;;;8.97;4.60;;;17.80;92.80;;;;;;4982905;28;20213;-75
2021/08/19 06:12:32;;;;;;;10.20;5.10;;;17.80;92.80;;;;;;4990682;28;20209;-76
2021/08/19 06:14:58;;;;;;;8.10;4.60;;;17.80;92.60;;;;;;4977626;28;20416;-76
2021/08/19 06:17:23;;;;;;;7.93;4.40;;;17.80;92.60;;;;;;4972324;28;20176;-76
2021/08/19 06:19:49;;;;;;;8.13;4.60;;;17.80;92.60;;;;;;4950373;28;20188;-76
2021/08/19 06:22:15;;;;;;;7.83;4.60;;;17.90;92.40;;;;;;4971282;28;20488;-76
2021/08/19 06:24:40;;;;;;;4.90;3.80;;;17.90;92.10;;;;;;4959332;28;20173;-76
2021/08/19 06:27:06;;;;;;;10.97;4.40;;;17.90;92.20;;;;;;4967963;28;20183;-76
2021/08/19 06:29:32;;;;;;;6.50;4.23;;;17.90;92.10;;;;;;4968057;28;20205;-76
2021/08/19 06:31:57;;;;;;;8.60;4.10;;;17.90;92.20;;;;;;4961957;28;20321;-76
2021/08/19 06:34:23;;;;;;;9.53;4.63;;;17.80;92.10;;;;;;4972693;28;20179;-76
2021/08/19 06:36:49;;;;;;;8.57;5.03;;;17.80;92.00;;;;;;4971627;28;20179;-76
2021/08/19 06:39:14;;;;;;;6.57;4.83;;;17.80;92.20;;;;;;4973414;28;20212;-77
2021/08/19 06:41:40;;;;;;;10.10;5.50;;;17.80;92.10;;;;;;4971420;28;20168;-76
2021/08/19 06:44:06;;;;;;;6.60;4.70;;;17.70;92.10;;;;;;4972095;28;20160;-76
2021/08/19 06:46:31;;;;;;;7.40;4.87;;;17.70;92.10;;;;;;4972781;28;20710;-76
2021/08/19 06:48:57;;;;;;;10.90;5.23;;;17.70;92.10;;;;;;4972356;28;20220;-76
2021/08/19 06:51:22;;;;;;;9.53;4.40;;;17.70;92.10;;;;;;4971160;28;20239;-77
2021/08/19 06:53:48;;;;;;;8.50;4.90;;;17.70;92.20;;;;;;4965712;28;20196;-77
2021/08/19 06:56:14;;;;;;;9.50;4.93;;;17.70;92.20;;;;;;4966794;28;20523;-77
2021/08/19 06:58:41;;;;;;;5.77;4.67;;;17.70;92.30;;;;;;4970242;28;20296;-77
2021/08/19 07:01:06;;;;;;;6.67;5.13;;;17.70;92.20;;;;;;4972556;28;20506;-77
2021/08/19 07:03:32;;;;;;;4.87;4.10;;;17.70;92.20;;;;;;4974069;28;20223;-77
2021/08/19 07:05:58;;;;;;;7.17;4.77;;;17.70;92.20;;;;;;4973812;28;20176;-76
2021/08/19 07:08:23;;;;;;;6.87;4.77;;;17.80;92.00;;;;;;4973473;28;20200;-77
2021/08/19 07:10:49;;;;;;;7.53;5.20;;;17.80;92.10;;;;;;4975003;28;20647;-75
2021/08/19 07:13:15;;;;;;;11.17;5.40;;;17.80;92.00;;;;;;4975088;28;20566;-78
2021/08/19 07:15:42;;;;;;;6.53;5.07;;;17.90;92.10;;;;;;4975249;28;20172;-77
2021/08/19 07:18:08;;;;;;;8.67;4.73;;;17.90;91.80;;;;;;4974283;28;20419;-77
2021/08/19 07:20:34;;;;;;;7.80;4.40;;;17.90;91.80;;;;;;4975573;28;20433;-76
2021/08/19 07:23:00;;;;;;;5.87;4.73;;;17.90;92.00;;;;;;4974874;28;20432;-75
2021/08/19 07:25:26;;;;;;;9.00;5.23;;;18.00;91.90;;;;;;4975676;28;20512;-75
2021/08/19 07:27:52;;;;;;;13.07;6.00;;;18.00;91.70;;;;;;4973775;28;20192;-76
2021/08/19 07:30:18;;;;;;;9.43;5.20;;;18.00;91.30;;;;;;4975192;28;20189;-77
2021/08/19 07:32:44;;;;;;;12.60;6.93;;;18.10;91.70;;;;;;4975111;28;21040;-77
2021/08/19 07:35:10;;;;;;;9.77;6.53;;;18.20;91.40;;;;;;4975588;28;20428;-76
2021/08/19 07:37:50;;;;;;;9.60;6.60;;;18.30;90.90;;;;;;4974833;28;20430;-76
2021/08/19 07:40:21;;;;;;;9.40;5.97;;;18.50;90.90;;;;;;4973322;28;20947;-77
2021/08/19 07:42:47;;;;;;;12.60;9.07;;;18.60;90.00;;;;;;4973594;28;20416;-76
2021/08/19 07:45:14;;;;;;;10.33;5.07;;;18.70;89.10;;;;;;4972780;28;20421;-76
2021/08/19 07:47:40;;;;;;;10.20;5.40;;;18.70;89.30;;;;;;4974158;28;20251;-76
2021/08/19 07:50:06;;;;;;;13.23;5.07;;;18.80;88.90;;;;;;4974379;28;20473;-76
2021/08/19 07:52:32;;;;;;;8.20;6.37;;;18.90;88.00;;;;;;4972875;28;20825;-77
2021/08/19 07:54:58;;;;;;;11.43;5.93;;;19.00;87.90;;;;;;4977465;28;20417;-77
2021/08/19 07:57:24;;;;;;;8.57;5.60;;;19.10;87.90;;;;;;4983016;28;20174;-77
2021/08/19 07:59:49;;;;;;;7.97;5.13;;;19.30;87.30;;;;;;4982877;28;20213;-77
2021/08/19 08:02:15;;;;;;;12.03;5.07;;;19.40;85.00;;;;;;4982502;28;20171;-77
2021/08/19 08:04:41;;;;;;;8.60;6.30;;;19.60;85.40;;;;;;4978288;28;20258;-77
2021/08/19 08:07:06;;;;;;;9.40;6.10;;;19.60;84.70;;;;;;4974768;28;20183;-76
2021/08/19 08:09:35;;;;;;;11.53;6.90;;;19.80;83.40;;;;;;4972596;28;20210;-76
2021/08/19 08:12:01;;;;;;;6.97;4.43;;;20.00;81.90;;;;;;4973290;28;20211;-77
2021/08/19 08:14:26;;;;;;;9.20;5.80;;;20.10;81.60;;;;;;4974637;28;20400;-77
2021/08/19 08:16:52;;;;;;;9.40;6.50;;;20.20;81.00;;;;;;4974668;28;20479;-77
2021/08/19 08:19:27;;;;;;;8.67;6.07;;;20.20;80.50;;;;;;4977722;28;20196;-77
2021/08/19 08:21:52;;;;;;;9.83;5.73;;;20.10;80.70;;;;;;4962245;28;20275;-78
2021/08/19 08:24:18;;;;;;;8.90;5.77;;;20.10;80.30;;;;;;4972871;28;20498;-77
2021/08/19 08:26:44;;;;;;;12.13;9.23;;;20.10;81.70;;;;;;4978091;28;20172;-76
2021/08/19 08:29:09;;;;;;;9.43;5.73;;;20.10;81.20;;;;;;4980903;28;20192;-77
2021/08/19 08:31:35;;;;;;;8.20;5.70;;;20.40;78.90;;;;;;4981408;28;20176;-77
2021/08/19 08:34:01;;;;;;;8.47;6.47;;;20.70;78.60;;;;;;4977693;28;20447;-77
2021/08/19 08:36:27;;;;;;;8.27;5.00;;;21.00;76.20;;;;;;4980086;28;20184;-80
2021/08/19 08:38:52;;;;;;;6.30;5.70;;;21.20;75.30;;;;;;4989711;28;20223;-77
2021/08/19 08:41:21;;;;;;;8.83;5.40;;;21.30;74.10;;;;;;4968049;28;20188;-77
2021/08/19 08:43:51;;;;;;;9.20;5.37;;;21.40;73.70;;;;;;4989473;28;20313;-78
2021/08/19 08:46:18;;;;;;;5.20;4.50;;;21.40;73.00;;;;;;4974925;28;20527;-76
2021/08/19 08:48:44;;;;;;;7.57;4.37;;;21.60;72.50;;;;;;4972316;28;20428;-76
2021/08/19 08:51:11;;;;;;;7.77;4.87;;;21.60;71.20;;;;;;4974322;28;20918;-77
2021/08/19 08:53:36;;;;;;;6.60;5.50;;;21.60;71.00;;;;;;4973228;28;20977;-77
2021/08/19 08:56:04;;;;;;;5.47;3.87;;;21.50;71.70;;;;;;4974852;28;20676;-77
2021/08/19 08:58:29;;;;;;;6.40;5.30;;;21.40;71.50;;;;;;4957134;28;20193;-76
2021/08/19 09:00:55;;;;;;;8.00;4.63;;;21.40;72.00;;;;;;4958701;28;20512;-78
2021/08/19 09:03:21;;;;;;;10.23;6.20;;;21.50;71.80;;;;;;4968872;28;20546;-75
2021/08/19 09:05:52;;;;;;;9.03;4.67;;;21.70;72.20;;;;;;4975642;28;20208;-77
2021/08/19 09:08:21;;;;;;;5.10;3.47;;;22.10;69.90;;;;;;4973507;28;20544;-77
2021/08/19 09:10:48;;;;;;;4.87;3.90;;;22.60;69.20;;;;;;4976158;28;20440;-77
2021/08/19 09:13:21;;;;;;;7.67;3.50;;;23.30;66.50;;;;;;4974658;28;20447;-77
2021/08/19 09:15:48;;;;;;;5.50;3.60;;;24.40;61.80;;;;;;4972648;28;20426;-76
2021/08/19 09:18:29;;;;;;;6.60;3.80;;;25.30;59.10;;;;;;4976582;28;20939;-76
2021/08/19 09:20:56;;;;;;;5.10;3.17;;;25.50;56.60;;;;;;4974212;28;20423;-77
2021/08/19 09:23:21;;;;;;;8.27;3.60;;;25.40;56.60;;;;;;4974679;28;20416;-78
2021/08/19 09:25:47;;;;;;;5.60;3.80;;;25.20;56.60;;;;;;4972228;28;20786;-77
2021/08/19 09:28:25;;;;;;;7.03;4.77;;;24.80;57.30;;;;;;4972182;28;20204;-78
2021/08/19 09:30:56;;;;;;;4.07;3.60;;;24.20;58.50;;;;;;4971697;28;20949;-76
2021/08/19 09:33:24;;;;;;;6.27;4.20;;;23.50;60.00;;;;;;4955133;28;20466;-77
2021/08/19 09:35:51;;;;;;;6.83;4.30;;;23.00;61.70;;;;;;4972185;28;20435;-77
2021/08/19 09:38:20;;;;;;;5.73;4.13;;;22.50;63.20;;;;;;4971643;28;20423;-77
2021/08/19 09:41:02;;;;;;;9.27;4.27;;;22.10;65.30;;;;;;4973779;23;20896;-77
2021/08/19 09:43:37;;;;;;;12.37;4.67;;;21.80;66.60;;;;;;4937555;28;20441;-77
2021/08/19 09:46:02;;;;;;;7.00;4.53;;;21.60;67.40;;;;;;4940209;29;20420;-77
2021/08/19 09:48:29;;;;;;;6.40;5.20;;;21.30;68.10;;;;;;4959690;28;20447;-76
2021/08/19 09:51:14;;;;;;;11.00;4.50;;;21.00;69.70;;;;;;4973885;28;20205;-79
2021/08/19 09:53:51;;;;;;;8.03;4.30;;;20.90;70.60;;;;;;4960043;28;20456;-79
2021/08/19 09:56:29;;;;;;;15.73;4.43;;;20.80;71.40;;;;;;4960537;28;20711;-79
2021/08/19 09:59:15;;;;;;;8.70;5.53;;;20.60;72.40;;;;;;4960251;28;20416;-78
2021/08/19 10:01:41;;;;;;;4.90;3.83;;;20.50;73.10;;;;;;4962462;28;20444;-79
2021/08/19 10:04:07;;;;;;;13.47;5.53;;;20.50;73.70;;;;;;4961776;28;20435;-78
2021/08/19 10:06:33;;;;;;;7.20;4.73;;;20.40;74.10;;;;;;4961561;28;20184;-78
2021/08/19 10:08:59;;;;;;;11.47;5.27;;;20.40;73.80;;;;;;4964998;28;20169;-76
2021/08/19 10:11:27;;;;;;;11.13;5.80;;;20.30;74.40;;;;;;4969207;29;20940;-78
2021/08/19 10:14:03;;;;;;;7.13;4.83;;;20.40;74.30;;;;;;4966857;29;20351;-78
2021/08/19 10:16:31;;;;;;;6.53;4.20;;;20.30;74.00;;;;;;4969511;28;20448;-77
2021/08/19 10:19:00;;;;;;;8.20;5.00;;;20.30;74.90;;;;;;4957894;28;20424;-77
2021/08/19 10:21:28;;;;;;;9.77;4.60;;;20.30;74.90;;;;;;4962200;28;20435;-79
2021/08/19 10:23:55;;;;;;;5.43;4.20;;;20.30;75.30;;;;;;4960476;28;20420;-79
2021/08/19 10:26:23;;;;;;;6.47;4.67;;;20.40;74.80;;;;;;4964843;28;20436;-78
2021/08/19 10:28:50;;;;;;;10.37;4.93;;;20.50;74.70;;;;;;4971331;29;20400;-79
2021/08/19 10:31:34;;;;;;;8.00;5.27;;;20.50;75.00;;;;;;4986530;28;20435;-78
2021/08/19 10:34:00;;;;;;;6.30;4.07;;;20.60;74.40;;;;;;4992225;28;20462;-78
2021/08/19 10:36:29;;;;;;;6.17;5.10;;;20.70;73.20;;;;;;4989378;28;20424;-78
2021/08/19 10:39:25;;;;;;;5.63;3.93;;;20.80;74.30;;;;;;4989101;28;20172;-79
2021/08/19 10:41:55;;;;;;;7.93;5.60;;;20.90;73.80;;;;;;4974116;28;20440;-77
2021/08/19 10:44:31;;;;;;;8.20;5.23;;;21.00;73.60;;;;;;4974562;28;20396;-76
2021/08/19 10:46:56;;;;;;;11.10;5.77;;;20.90;73.00;;;;;;4978786;28;20893;-79
2021/08/19 10:49:41;;;;;;;6.67;5.67;;;20.90;72.70;;;;;;4984422;28;20482;-78
2021/08/19 10:52:09;;;;;;;11.57;6.77;;;20.70;73.20;;;;;;4984592;28;20250;-78
2021/08/19 10:54:40;;;;;;;7.00;5.33;;;20.70;74.60;;;;;;4984670;28;20415;-78
2021/08/19 10:57:24;;;;;;;12.43;6.77;;;20.70;73.60;;;;;;4960186;28;20421;-76
2021/08/19 10:59:56;;;;;;;8.13;5.70;;;20.70;73.60;;;;;;4943821;29;20439;-77
2021/08/19 11:02:44;;;;;;;6.37;5.20;;;20.70;74.00;;;;;;4941403;29;20537;-77
2021/08/19 11:05:20;;;;;;;7.20;5.47;;;20.70;73.90;;;;;;4945491;29;20488;-79
2021/08/19 11:07:51;;;;;;;7.30;5.90;;;20.60;74.30;;;;;;4962758;28;20420;-78
2021/08/19 11:10:20;;;;;;;9.20;5.37;;;20.50;74.70;;;;;;4962841;28;20463;-77
2021/08/19 11:12:47;;;;;;;12.77;6.87;;;20.30;74.40;;;;;;4973233;28;20522;-78
2021/08/19 11:15:13;;;;;;;6.23;5.27;;;20.20;75.70;;;;;;4978946;28;20407;-79
2021/08/19 11:17:58;;;;;;;5.70;4.77;;;20.20;75.20;;;;;;4964993;28;20406;-77
2021/08/19 11:20:28;;;;;;;9.27;5.47;;;20.10;75.70;;;;;;4961967;28;20487;-77
2021/08/19 11:23:11;;;;;;;6.70;5.07;;;20.00;76.00;;;;;;4960584;28;20435;-77
2021/08/19 11:25:40;;;;;;;8.23;5.53;;;19.90;76.50;;;;;;4958791;28;20431;-77
2021/08/19 11:28:11;;;;;;;10.23;6.73;;;19.90;77.10;;;;;;4959466;29;20432;-77
2021/08/19 11:30:44;;;;;;;7.63;6.17;;;20.00;77.50;;;;;;4962578;28;20455;-78
2021/08/19 11:33:14;;;;;;;9.80;5.30;;;20.10;77.50;;;;;;4963392;28;20468;-77
2021/08/19 11:35:42;;;;;;;7.03;5.77;;;20.20;77.00;;;;;;4957125;29;20444;-78
2021/08/19 11:38:10;;;;;;;8.30;5.77;;;20.20;76.80;;;;;;4960620;28;20412;-78
2021/08/19 11:40:38;;;;;;;6.27;4.33;;;20.10;76.90;;;;;;4983617;28;20489;-79
2021/08/19 11:43:33;;;;;;;8.90;5.00;;;20.00;77.50;;;;;;4954164;29;20424;-80
2021/08/19 11:46:08;;;;;;;9.53;5.67;;;19.80;78.10;;;;;;4967891;28;20423;-79
2021/08/19 11:48:35;;;;;;;10.17;5.57;;;19.70;79.20;;;;;;4970729;28;20469;-80
2021/08/19 11:51:03;;;;;;;6.93;4.90;;;19.60;80.10;;;;;;4973034;28;20455;-79
2021/08/19 11:53:29;;;;;;;6.50;4.63;;;19.50;80.80;;;;;;4971643;29;20483;-78
2021/08/19 11:55:56;;;;;;;7.07;4.77;;;19.50;81.30;;;;;;4970974;28;20427;-79
2021/08/19 11:58:26;;;;;;;5.67;4.47;;;19.60;81.80;;;;;;4966311;29;20507;-79
2021/08/19 12:00:58;;;;;;;5.83;3.77;;;20.00;80.90;;;;;;4961831;29;20503;-79
2021/08/19 12:03:25;;;;;;;6.40;3.43;;;20.50;78.20;;;;;;4960657;29;20420;-80
2021/08/19 12:06:07;;;;;;;4.50;2.80;;;20.60;76.40;;;;;;4977655;28;20437;-79
2021/08/19 12:08:35;;;;;;;8.27;2.67;;;20.60;75.50;;;;;;4963183;28;20433;-80
2021/08/19 12:11:02;;;;;;;7.87;2.93;;;20.70;75.60;;;;;;4961320;29;20445;-79
2021/08/19 12:13:33;;;;;;;3.00;2.13;;;20.70;75.50;;;;;;4966716;29;20460;-79
2021/08/19 12:16:02;;;;;;;2.60;1.70;;;20.70;74.40;;;;;;4978757;28;20432;-79
2021/08/19 12:18:28;;;;;;;2.10;1.60;;;20.70;74.90;;;;;;4962101;28;20428;-79
2021/08/19 12:21:14;;;;;;;2.27;1.50;;;20.80;73.40;;;;;;4959289;28;20432;-79
2021/08/19 12:23:40;;;;;;;3.70;1.93;;;20.90;71.80;;;;;;4959219;28;20177;-79
2021/08/19 12:26:11;;;;;;;3.50;1.87;;;21.00;72.40;;;;;;4943218;28;20761;-79
2021/08/19 12:28:37;;;;;;;6.80;1.50;;;21.20;71.60;;;;;;4958209;28;20417;-79
2021/08/19 12:31:08;;;;;;;5.27;2.03;;;21.40;69.90;;;;;;4958012;28;20437;-79
2021/08/19 12:33:40;;;;;;;1.90;1.53;;;21.50;70.70;;;;;;4957267;29;20730;-79
2021/08/19 12:36:13;;;;;;;5.10;2.97;;;21.80;69.20;;;;;;4953103;28;20412;-79
2021/08/19 12:38:40;;;;;;;2.40;2.17;;;21.90;68.00;;;;;;4961604;28;20832;-80
2021/08/19 12:41:18;;;;;;;18.97;17.27;;;22.00;67.60;;;;;;4973627;28;20474;-79
2021/08/19 12:43:46;;;;;;;2.53;2.17;;;22.00;67.50;;;;;;4968894;28;20442;-79
2021/08/19 12:46:17;;;;;;;3.70;1.63;;;22.00;67.10;;;;;;4955248;29;20440;-80